Time;durP1;ratioP1;P1;durP2;ratioP2;P2;SDS_P1;SDS_P2;PMS_P1;PMS_P2;Temp;Humidity;BMP_temperature;BMP_pressure;BME280_temperature;BME280_humidity;BME280_pressure;Samples;Min_cycle;Max_cycle;Signal;HPM_P1;HPM_P2
2023/12/10 00:00:15;;;;;;;14.40;3.60;;;9.80;99.90;;;;;;5058401;28;20602;-36
2023/12/10 00:02:41;;;;;;;13.85;2.83;;;9.80;99.90;;;;;;5059219;28;20044;-42
2023/12/10 00:05:07;;;;;;;17.90;3.63;;;9.80;99.90;;;;;;5061438;28;20093;-36
2023/12/10 00:07:32;;;;;;;13.88;2.95;;;9.80;99.90;;;;;;5059938;28;20024;-37
2023/12/10 00:09:58;;;;;;;13.43;2.80;;;9.90;99.90;;;;;;5059968;28;20032;-37
2023/12/10 00:12:23;;;;;;;13.27;3.53;;;9.90;99.90;;;;;;5059831;28;20048;-36
2023/12/10 00:14:49;;;;;;;14.90;4.32;;;9.90;99.90;;;;;;5057926;28;20037;-38
2023/12/10 00:17:18;;;;;;;15.48;3.15;;;9.90;99.90;;;;;;5060415;28;20115;-36
2023/12/10 00:19:43;;;;;;;11.15;2.72;;;10.00;99.90;;;;;;5060716;28;20117;-36
2023/12/10 00:22:09;;;;;;;16.27;3.20;;;10.00;99.90;;;;;;5060096;28;20725;-39
2023/12/10 00:24:34;;;;;;;15.95;3.30;;;10.00;99.90;;;;;;5059844;28;20155;-36
2023/12/10 00:27:00;;;;;;;13.20;3.28;;;10.00;99.90;;;;;;5059493;28;20025;-36
2023/12/10 00:29:26;;;;;;;20.10;3.78;;;10.00;99.90;;;;;;5059460;28;20078;-36
2023/12/10 00:31:51;;;;;;;15.05;4.40;;;10.10;99.90;;;;;;5058981;28;20558;-36
2023/12/10 00:34:17;;;;;;;17.33;3.67;;;10.00;99.90;;;;;;5059390;28;20043;-36
2023/12/10 00:36:45;;;;;;;17.45;3.47;;;10.00;99.90;;;;;;5057553;28;20048;-36
2023/12/10 00:39:12;;;;;;;13.80;3.33;;;10.00;99.90;;;;;;5058451;28;20166;-37
2023/12/10 00:41:38;;;;;;;14.93;3.42;;;10.00;99.90;;;;;;5059986;28;20024;-36
2023/12/10 00:44:03;;;;;;;15.55;3.35;;;9.90;99.90;;;;;;5058699;28;20033;-35
2023/12/10 00:46:29;;;;;;;20.30;4.20;;;9.80;99.90;;;;;;5061032;28;20101;-36
2023/12/10 00:48:55;;;;;;;19.55;4.25;;;9.80;99.90;;;;;;5059016;28;20058;-36
2023/12/10 00:51:22;;;;;;;17.17;3.72;;;9.80;99.90;;;;;;5059253;28;20052;-36
2023/12/10 00:53:49;;;;;;;20.30;3.28;;;9.80;99.90;;;;;;5058898;28;20037;-37
2023/12/10 00:56:15;;;;;;;16.98;3.47;;;9.70;99.90;;;;;;5040682;28;20028;-37
2023/12/10 00:58:41;;;;;;;13.38;3.15;;;9.70;99.90;;;;;;5053366;28;20119;-37
2023/12/10 01:01:07;;;;;;;14.27;3.10;;;9.60;99.90;;;;;;5059088;28;20109;-38
2023/12/10 01:03:34;;;;;;;12.57;3.70;;;9.60;99.90;;;;;;5059937;28;20059;-37
2023/12/10 01:06:01;;;;;;;21.02;4.13;;;9.50;99.90;;;;;;5058356;28;20105;-37
2023/12/10 01:08:26;;;;;;;14.02;3.15;;;9.50;99.90;;;;;;5059582;28;20033;-39
2023/12/10 01:10:52;;;;;;;12.45;3.00;;;9.50;99.90;;;;;;5058845;28;20479;-37
2023/12/10 01:13:18;;;;;;;20.13;3.88;;;9.40;99.90;;;;;;5059321;28;20028;-36
2023/12/10 01:15:43;;;;;;;16.27;3.13;;;9.40;99.90;;;;;;5062883;28;20475;-37
2023/12/10 01:18:10;;;;;;;11.45;2.88;;;9.40;99.90;;;;;;5062866;28;20033;-36
2023/12/10 01:20:37;;;;;;;13.68;3.65;;;9.40;99.90;;;;;;5062377;28;20063;-37
2023/12/10 01:23:04;;;;;;;18.15;3.83;;;9.40;99.90;;;;;;5062574;28;20823;-43
2023/12/10 01:25:30;;;;;;;17.58;3.88;;;9.40;99.90;;;;;;5063022;28;20021;-37
2023/12/10 01:27:55;;;;;;;19.67;4.10;;;9.40;99.90;;;;;;5063046;28;20800;-40
2023/12/10 01:30:23;;;;;;;13.27;3.13;;;9.30;99.90;;;;;;5062750;28;20052;-36
2023/12/10 01:32:53;;;;;;;12.00;3.33;;;9.40;99.90;;;;;;5062222;28;20048;-38
2023/12/10 01:35:19;;;;;;;15.05;3.25;;;9.30;99.90;;;;;;5063034;28;20384;-36
2023/12/10 01:37:45;;;;;;;11.18;3.03;;;9.30;99.90;;;;;;5063094;28;20017;-36
2023/12/10 01:40:11;;;;;;;17.70;3.40;;;9.30;99.90;;;;;;5061727;28;20514;-38
2023/12/10 01:42:39;;;;;;;15.30;3.50;;;9.30;99.90;;;;;;5061927;28;20747;-37
2023/12/10 01:45:05;;;;;;;16.35;3.45;;;9.30;99.90;;;;;;5063201;28;20105;-36
2023/12/10 01:47:34;;;;;;;12.25;2.90;;;9.30;99.90;;;;;;5062323;28;20404;-36
2023/12/10 01:50:04;;;;;;;9.77;2.80;;;9.30;99.90;;;;;;5061751;28;20036;-37
2023/12/10 01:52:30;;;;;;;17.02;3.50;;;9.30;99.90;;;;;;5062767;28;20863;-40
2023/12/10 01:54:56;;;;;;;15.70;3.35;;;9.30;99.90;;;;;;5061291;28;20174;-36
2023/12/10 01:57:22;;;;;;;13.82;3.20;;;9.30;99.90;;;;;;5062474;28;20123;-36
2023/12/10 01:59:50;;;;;;;11.10;2.90;;;9.30;99.90;;;;;;5062327;28;20035;-36
2023/12/10 02:02:16;;;;;;;14.32;3.25;;;9.30;99.90;;;;;;5061627;28;20075;-36
2023/12/10 02:04:41;;;;;;;12.27;2.95;;;9.30;99.90;;;;;;5062080;28;20083;-37
2023/12/10 02:07:07;;;;;;;10.15;2.63;;;9.30;99.90;;;;;;5061573;28;20073;-37
2023/12/10 02:09:33;;;;;;;16.77;3.10;;;9.20;99.90;;;;;;5063323;28;20081;-37
2023/12/10 02:12:02;;;;;;;15.30;3.08;;;9.20;99.90;;;;;;5061908;28;20460;-37
2023/12/10 02:14:28;;;;;;;15.23;3.10;;;9.20;99.90;;;;;;5062256;28;20033;-36
2023/12/10 02:16:56;;;;;;;14.07;2.78;;;9.20;99.90;;;;;;5061301;28;20064;-37
2023/12/10 02:19:22;;;;;;;14.43;2.75;;;9.20;99.90;;;;;;5063119;28;20042;-36
2023/12/10 02:21:51;;;;;;;11.70;2.42;;;9.20;99.90;;;;;;5061602;28;20032;-36
2023/12/10 02:24:25;;;;;;;14.23;3.00;;;9.20;99.90;;;;;;5062647;28;20037;-36
2023/12/10 02:26:51;;;;;;;16.15;3.03;;;9.20;99.90;;;;;;5059777;28;20082;-37
2023/12/10 02:29:17;;;;;;;15.43;3.72;;;9.20;99.90;;;;;;5061420;28;20691;-36
2023/12/10 02:31:43;;;;;;;15.25;3.13;;;9.20;99.90;;;;;;5061670;28;20025;-36
2023/12/10 02:34:08;;;;;;;13.32;2.90;;;9.10;99.90;;;;;;5062133;28;20036;-35
2023/12/10 02:36:34;;;;;;;16.02;3.00;;;9.20;99.90;;;;;;5060339;28;20128;-36
2023/12/10 02:39:00;;;;;;;12.95;2.95;;;9.20;99.90;;;;;;5061278;28;20024;-36
2023/12/10 02:41:25;;;;;;;13.02;2.53;;;9.20;99.90;;;;;;5061961;28;20052;-36
2023/12/10 02:43:51;;;;;;;10.55;2.67;;;9.20;99.90;;;;;;5060711;28;20154;-36
2023/12/10 02:46:17;;;;;;;15.25;3.10;;;9.20;99.90;;;;;;5061733;28;20016;-36
2023/12/10 02:48:43;;;;;;;14.80;3.50;;;9.10;99.90;;;;;;5061521;28;20039;-35
2023/12/10 02:51:08;;;;;;;11.68;2.78;;;9.10;99.90;;;;;;5061515;28;20574;-36
2023/12/10 02:53:34;;;;;;;16.25;3.50;;;9.10;99.90;;;;;;5061358;28;20049;-36
2023/12/10 02:55:59;;;;;;;16.00;3.50;;;9.10;99.90;;;;;;5064549;28;20052;-36
2023/12/10 02:58:25;;;;;;;17.20;3.17;;;9.00;99.90;;;;;;5060252;28;20123;-36
2023/12/10 03:00:51;;;;;;;13.95;4.13;;;9.00;99.90;;;;;;5061954;28;20125;-36
2023/12/10 03:03:16;;;;;;;18.40;3.33;;;9.00;99.90;;;;;;5060928;28;20037;-36
2023/12/10 03:05:42;;;;;;;15.07;3.42;;;8.90;99.90;;;;;;5061827;28;20055;-36
2023/12/10 03:08:08;;;;;;;14.73;3.38;;;8.90;99.90;;;;;;5060919;28;20115;-38
2023/12/10 03:10:33;;;;;;;18.98;3.50;;;8.90;99.90;;;;;;5059785;28;20463;-36
2023/12/10 03:12:59;;;;;;;19.33;3.65;;;8.90;99.90;;;;;;5060477;28;20074;-36
2023/12/10 03:15:24;;;;;;;15.27;4.20;;;8.90;99.90;;;;;;5061796;28;20166;-38
2023/12/10 03:17:50;;;;;;;14.55;2.70;;;8.80;99.90;;;;;;5059781;28;20095;-36
2023/12/10 03:20:16;;;;;;;16.80;3.25;;;8.80;99.90;;;;;;5061568;28;20036;-36
2023/12/10 03:22:47;;;;;;;21.00;4.60;;;8.80;99.90;;;;;;5061188;28;20032;-37
2023/12/10 03:25:13;;;;;;;14.57;4.13;;;8.80;99.90;;;;;;5060731;28;20028;-36
2023/12/10 03:27:39;;;;;;;17.73;3.97;;;8.70;99.90;;;;;;5060072;28;20482;-38
2023/12/10 03:30:05;;;;;;;16.75;3.83;;;8.70;99.90;;;;;;5061044;28;20078;-36
2023/12/10 03:32:34;;;;;;;16.83;3.33;;;8.70;99.90;;;;;;5060520;28;20099;-36
2023/12/10 03:34:59;;;;;;;25.55;3.85;;;8.70;99.90;;;;;;5058726;28;20115;-36
2023/12/10 03:37:25;;;;;;;18.20;3.92;;;8.70;99.90;;;;;;5060955;28;20020;-37
2023/12/10 03:39:51;;;;;;;18.33;4.53;;;8.70;99.90;;;;;;5059650;28;20019;-37
2023/12/10 03:42:16;;;;;;;16.17;3.80;;;8.70;99.90;;;;;;5060889;28;20024;-36
2023/12/10 03:44:42;;;;;;;18.15;3.42;;;8.70;99.90;;;;;;5059858;28;20039;-36
2023/12/10 03:47:08;;;;;;;14.77;3.90;;;8.70;99.90;;;;;;5060128;28;20136;-36
2023/12/10 03:49:33;;;;;;;18.38;3.70;;;8.70;99.90;;;;;;5066109;28;20799;-38
2023/12/10 03:51:59;;;;;;;25.38;5.05;;;8.70;99.90;;;;;;5060462;28;20379;-36
2023/12/10 03:54:24;;;;;;;15.40;3.20;;;8.70;99.90;;;;;;5060017;28;20127;-34
2023/12/10 03:56:50;;;;;;;16.48;3.45;;;8.70;99.90;;;;;;5059217;28;20475;-36
2023/12/10 03:59:16;;;;;;;15.45;3.45;;;8.70;99.90;;;;;;5060433;28;20090;-36
2023/12/10 04:01:42;;;;;;;21.48;4.22;;;8.70;99.90;;;;;;5059736;28;20498;-34
2023/12/10 04:04:09;;;;;;;21.67;4.00;;;8.70;99.90;;;;;;5059882;28;20246;-36
2023/12/10 04:06:42;;;;;;;26.77;4.13;;;8.70;99.90;;;;;;5059979;28;20039;-36
2023/12/10 04:09:08;;;;;;;;;;;8.70;99.90;;;;;;5060748;28;20032;-36
2023/12/10 04:11:34;;;;;;;21.52;4.13;;;8.70;99.90;;;;;;5060814;28;19915;-35
2023/12/10 04:14:00;;;;;;;18.27;3.30;;;8.70;99.90;;;;;;5058816;28;20032;-35
2023/12/10 04:16:27;;;;;;;27.85;4.35;;;8.60;99.90;;;;;;5060186;28;20036;-35
2023/12/10 04:18:53;;;;;;;26.83;4.78;;;8.60;99.90;;;;;;5059023;28;20029;-35
2023/12/10 04:21:22;;;;;;;22.83;4.53;;;8.70;99.90;;;;;;5060039;28;20396;-35
2023/12/10 04:23:48;;;;;;;19.58;3.55;;;8.70;99.90;;;;;;5060418;28;20024;-35
2023/12/10 04:26:15;;;;;;;20.30;3.40;;;8.70;99.90;;;;;;5060031;28;20130;-35
2023/12/10 04:28:41;;;;;;;20.23;4.57;;;8.70;99.90;;;;;;5059491;28;20808;-35
2023/12/10 04:31:08;;;;;;;21.23;3.88;;;8.70;99.90;;;;;;5059394;28;20021;-35
2023/12/10 04:33:34;;;;;;;19.95;3.50;;;8.70;99.90;;;;;;5060272;28;20041;-39
2023/12/10 04:36:00;;;;;;;20.58;4.22;;;8.70;99.90;;;;;;5059072;28;20031;-36
2023/12/10 04:38:28;;;;;;;21.75;3.75;;;8.70;99.90;;;;;;5060647;28;20140;-35
2023/12/10 04:40:56;;;;;;;21.15;4.40;;;8.70;99.90;;;;;;5059061;28;20078;-36
2023/12/10 04:43:22;;;;;;;22.00;3.63;;;8.70;99.90;;;;;;5058536;28;20486;-35
2023/12/10 04:45:47;;;;;;;19.65;4.38;;;8.70;99.90;;;;;;5059286;28;20596;-36
2023/12/10 04:48:23;;;;;;;15.70;3.40;;;8.70;99.90;;;;;;5060179;28;20660;-36
2023/12/10 04:50:49;;;;;;;25.42;5.13;;;8.70;99.90;;;;;;5062633;28;20372;-36
2023/12/10 04:53:15;;;;;;;20.85;4.68;;;8.80;99.90;;;;;;5064681;28;20047;-36
2023/12/10 04:55:41;;;;;;;19.27;3.53;;;8.70;99.90;;;;;;5063782;28;20542;-36
2023/12/10 04:58:06;;;;;;;17.70;3.72;;;8.80;99.90;;;;;;5063484;28;20043;-36
2023/12/10 05:00:33;;;;;;;22.33;3.70;;;8.80;99.90;;;;;;5063174;28;20710;-36
2023/12/10 05:03:01;;;;;;;19.10;3.80;;;8.80;99.90;;;;;;5062199;28;20077;-38
2023/12/10 05:05:27;;;;;;;24.27;4.45;;;8.80;99.90;;;;;;5063454;28;20707;-35
2023/12/10 05:07:53;;;;;;;24.17;4.20;;;8.90;99.90;;;;;;5063754;28;20066;-36
2023/12/10 05:10:19;;;;;;;17.60;4.18;;;8.90;99.90;;;;;;5064048;28;20059;-36
2023/12/10 05:12:45;;;;;;;24.67;3.95;;;8.90;99.90;;;;;;5063931;28;20036;-35
2023/12/10 05:15:11;;;;;;;19.73;3.85;;;8.90;99.90;;;;;;5064067;28;20037;-34
2023/12/10 05:17:36;;;;;;;22.85;4.18;;;8.90;99.90;;;;;;5062735;28;20024;-34
2023/12/10 05:20:05;;;;;;;21.30;4.47;;;8.90;99.90;;;;;;5062914;28;20052;-34
2023/12/10 05:22:31;;;;;;;23.13;5.15;;;8.90;99.90;;;;;;5062752;28;20052;-36
2023/12/10 05:24:56;;;;;;;16.85;3.30;;;9.00;99.90;;;;;;5061130;28;20112;-35
2023/12/10 05:27:22;;;;;;;17.60;3.30;;;9.00;99.90;;;;;;5063478;28;20028;-36
2023/12/10 05:29:47;;;;;;;21.38;4.10;;;9.00;99.90;;;;;;5063248;28;20117;-36
2023/12/10 05:32:13;;;;;;;20.27;4.50;;;9.00;99.90;;;;;;5062148;28;20028;-36
2023/12/10 05:34:39;;;;;;;21.58;4.15;;;9.00;99.90;;;;;;5063732;28;20045;-36
2023/12/10 05:37:04;;;;;;;20.75;3.97;;;9.10;99.90;;;;;;5062256;28;20673;-35
2023/12/10 05:39:30;;;;;;;16.50;3.60;;;9.10;99.90;;;;;;5062506;28;20025;-36
2023/12/10 05:41:56;;;;;;;20.17;4.32;;;9.10;99.90;;;;;;5062415;28;20024;-37
2023/12/10 05:44:21;;;;;;;17.45;3.67;;;9.10;99.90;;;;;;5062195;28;20131;-36
2023/12/10 05:46:47;;;;;;;17.83;4.60;;;9.10;99.90;;;;;;5061830;28;20035;-36
2023/12/10 05:49:12;;;;;;;20.35;3.38;;;9.20;99.90;;;;;;5062019;28;20032;-35
2023/12/10 05:51:38;;;;;;;25.65;4.65;;;9.20;99.90;;;;;;5063218;28;20049;-36
2023/12/10 05:54:04;;;;;;;20.65;3.83;;;9.20;99.90;;;;;;5061400;28;20032;-36
2023/12/10 05:56:29;;;;;;;15.82;3.22;;;9.20;99.90;;;;;;5063372;28;20028;-36
2023/12/10 05:58:55;;;;;;;19.58;3.25;;;9.20;99.90;;;;;;5062059;28;20047;-36
2023/12/10 06:01:21;;;;;;;17.15;3.25;;;9.30;99.90;;;;;;5062317;28;20028;-37
2023/12/10 06:03:46;;;;;;;15.48;3.70;;;9.20;99.90;;;;;;5063106;28;20101;-35
2023/12/10 06:06:12;;;;;;;20.00;3.40;;;9.20;99.90;;;;;;5061917;28;20063;-35
2023/12/10 06:08:39;;;;;;;19.40;3.50;;;9.30;99.90;;;;;;5062606;28;20064;-36
2023/12/10 06:11:08;;;;;;;22.90;3.90;;;9.30;99.90;;;;;;5061946;28;20029;-35
2023/12/10 06:13:33;;;;;;;14.85;3.42;;;9.30;99.90;;;;;;5060518;28;20066;-36
2023/12/10 06:16:00;;;;;;;18.88;3.65;;;9.30;99.90;;;;;;5061911;28;20028;-35
2023/12/10 06:18:25;;;;;;;16.60;3.20;;;9.30;99.90;;;;;;5062241;28;20060;-36
2023/12/10 06:20:51;;;;;;;21.83;3.83;;;9.30;99.90;;;;;;5061596;28;20734;-36
2023/12/10 06:23:17;;;;;;;19.88;4.05;;;9.40;99.90;;;;;;5063492;28;20410;-35
2023/12/10 06:25:42;;;;;;;17.25;3.60;;;9.40;99.90;;;;;;5062306;28;20021;-36
2023/12/10 06:28:12;;;;;;;18.55;3.05;;;9.40;99.90;;;;;;5059535;28;20835;-35
2023/12/10 06:30:37;;;;;;;21.13;3.33;;;9.40;99.90;;;;;;5058408;28;20028;-36
2023/12/10 06:33:03;;;;;;;25.40;3.90;;;9.40;99.90;;;;;;5061387;28;20035;-38
2023/12/10 06:35:29;;;;;;;18.00;3.13;;;9.40;99.90;;;;;;5059862;28;20040;-36
2023/12/10 06:37:54;;;;;;;21.02;4.30;;;9.40;99.90;;;;;;5060890;28;20066;-36
2023/12/10 06:40:20;;;;;;;19.95;4.10;;;9.30;99.90;;;;;;5061192;28;20051;-36
2023/12/10 06:42:46;;;;;;;21.95;3.67;;;9.40;99.90;;;;;;5060389;28;20368;-36
2023/12/10 06:45:12;;;;;;;18.58;3.83;;;9.30;99.90;;;;;;5061646;28;20029;-36
2023/12/10 06:47:38;;;;;;;20.85;3.40;;;9.40;99.90;;;;;;5062420;28;20108;-36
2023/12/10 06:50:04;;;;;;;22.27;4.75;;;9.30;99.90;;;;;;5060823;28;20537;-36
2023/12/10 06:52:30;;;;;;;17.50;3.42;;;9.30;99.90;;;;;;5062004;28;20638;-35
2023/12/10 06:54:56;;;;;;;16.23;3.35;;;9.30;99.90;;;;;;5060927;28;20037;-36
2023/12/10 06:57:21;;;;;;;17.60;3.35;;;9.40;99.90;;;;;;5060624;28;20854;-36
2023/12/10 06:59:47;;;;;;;16.73;3.40;;;9.40;99.90;;;;;;5061221;28;20024;-36
2023/12/10 07:02:13;;;;;;;20.50;3.63;;;9.40;99.90;;;;;;5062073;28;20032;-37
2023/12/10 07:04:39;;;;;;;20.63;4.25;;;9.40;99.90;;;;;;5059285;28;20016;-37
2023/12/10 07:07:07;;;;;;;15.80;3.45;;;9.50;99.90;;;;;;5060650;28;20127;-35
2023/12/10 07:09:33;;;;;;;19.60;3.35;;;9.50;99.90;;;;;;5061138;28;20055;-35
2023/12/10 07:11:59;;;;;;;14.88;3.58;;;9.50;99.90;;;;;;5059118;28;20380;-35
2023/12/10 07:14:24;;;;;;;17.67;3.80;;;9.60;99.90;;;;;;5061749;28;20498;-36
2023/12/10 07:16:50;;;;;;;18.92;3.75;;;9.60;99.90;;;;;;5059576;28;20024;-35
2023/12/10 07:19:16;;;;;;;15.73;3.65;;;9.60;99.90;;;;;;5060908;28;20040;-36
2023/12/10 07:21:41;;;;;;;19.70;3.95;;;9.70;99.90;;;;;;5060336;28;20028;-35
2023/12/10 07:24:07;;;;;;;15.63;3.30;;;9.70;99.90;;;;;;5061122;28;20775;-35
2023/12/10 07:26:33;;;;;;;15.85;3.83;;;9.70;99.90;;;;;;5060747;28;20132;-35
2023/12/10 07:28:59;;;;;;;13.35;3.38;;;9.70;99.90;;;;;;5060667;28;20035;-35
2023/12/10 07:31:25;;;;;;;18.40;4.43;;;9.70;99.90;;;;;;5060401;28;20526;-35
2023/12/10 07:33:51;;;;;;;20.67;3.85;;;9.80;99.90;;;;;;5060190;28;20044;-36
2023/12/10 07:36:17;;;;;;;28.02;4.90;;;9.80;99.90;;;;;;5060935;28;20090;-35
2023/12/10 07:38:43;;;;;;;17.27;3.67;;;9.80;99.90;;;;;;5060619;28;20086;-35
2023/12/10 07:41:09;;;;;;;19.60;3.55;;;9.80;99.90;;;;;;5060462;28;20032;-36
2023/12/10 07:43:35;;;;;;;14.95;3.75;;;9.80;99.90;;;;;;5060898;28;20037;-36
2023/12/10 07:46:00;;;;;;;19.10;4.13;;;9.80;99.90;;;;;;5058654;28;20070;-36
2023/12/10 07:48:27;;;;;;;17.70;3.60;;;9.80;99.90;;;;;;5060742;28;20626;-36
2023/12/10 07:50:52;;;;;;;22.83;3.95;;;9.80;99.90;;;;;;5060998;28;20041;-35
2023/12/10 07:53:18;;;;;;;15.32;3.10;;;9.80;99.90;;;;;;5061148;28;20047;-35
2023/12/10 07:55:44;;;;;;;17.17;4.03;;;9.90;99.90;;;;;;5061338;28;20357;-35
2023/12/10 07:58:09;;;;;;;21.05;3.30;;;9.80;99.90;;;;;;5060178;28;20135;-36
2023/12/10 08:00:35;;;;;;;16.67;3.80;;;9.80;99.90;;;;;;5057647;28;20028;-35
2023/12/10 08:03:01;;;;;;;15.43;3.45;;;9.80;99.90;;;;;;5058657;28;20031;-35
2023/12/10 08:05:27;;;;;;;14.45;2.97;;;9.80;99.90;;;;;;5061023;28;20020;-35
2023/12/10 08:07:53;;;;;;;14.35;3.95;;;9.90;99.90;;;;;;5058607;28;20039;-35
2023/12/10 08:10:18;;;;;;;17.98;3.13;;;9.90;99.90;;;;;;5059945;28;20035;-35
2023/12/10 08:12:44;;;;;;;22.70;4.20;;;9.90;99.90;;;;;;5059578;28;20602;-35
2023/12/10 08:15:10;;;;;;;17.25;3.55;;;9.90;99.90;;;;;;5060530;28;20055;-35
2023/12/10 08:17:36;;;;;;;18.75;3.60;;;9.90;99.90;;;;;;5060375;28;20856;-35
2023/12/10 08:20:03;;;;;;;25.13;3.42;;;9.90;99.90;;;;;;5059314;28;20025;-35
2023/12/10 08:22:29;;;;;;;13.45;3.75;;;9.90;99.90;;;;;;5059411;28;20025;-36
2023/12/10 08:24:54;;;;;;;16.90;3.15;;;9.90;99.90;;;;;;5058666;28;20101;-36
2023/12/10 08:27:20;;;;;;;19.13;4.20;;;9.90;99.90;;;;;;5060216;28;20024;-36
2023/12/10 08:29:46;;;;;;;15.05;3.50;;;9.80;99.90;;;;;;5059536;28;20086;-36
2023/12/10 08:32:11;;;;;;;23.75;3.85;;;9.90;99.90;;;;;;5059858;28;20024;-37
2023/12/10 08:34:38;;;;;;;12.27;3.22;;;9.90;99.90;;;;;;5058952;28;20044;-37
2023/12/10 08:37:04;;;;;;;16.35;3.58;;;9.90;99.90;;;;;;5060638;28;20024;-37
2023/12/10 08:39:30;;;;;;;11.85;3.35;;;9.90;99.90;;;;;;5060149;28;20125;-37
2023/12/10 08:41:55;;;;;;;16.88;3.60;;;9.90;99.90;;;;;;5059403;28;20104;-36
2023/12/10 08:44:21;;;;;;;17.02;3.95;;;9.90;99.90;;;;;;5061006;28;20040;-36
2023/12/10 08:46:47;;;;;;;13.10;3.10;;;9.90;99.90;;;;;;5060486;28;20494;-37
2023/12/10 08:49:12;;;;;;;15.68;3.75;;;9.90;99.90;;;;;;5058569;28;20029;-37
2023/12/10 08:51:38;;;;;;;15.20;3.60;;;9.90;99.90;;;;;;5060130;28;20037;-37
2023/12/10 08:54:04;;;;;;;13.25;2.75;;;10.00;99.90;;;;;;5059722;28;20067;-37
2023/12/10 08:56:29;;;;;;;14.93;3.10;;;10.00;99.90;;;;;;5059537;28;20634;-37
2023/12/10 08:58:55;;;;;;;15.10;3.10;;;10.00;99.90;;;;;;5059997;28;20062;-37
2023/12/10 09:01:21;;;;;;;13.35;3.30;;;10.00;99.90;;;;;;5060080;28;20074;-37
2023/12/10 09:03:47;;;;;;;13.98;3.78;;;10.00;99.90;;;;;;5059232;28;20031;-36
2023/12/10 09:06:12;;;;;;;12.02;2.60;;;10.00;99.90;;;;;;5059320;28;20021;-36
2023/12/10 09:08:39;;;;;;;13.55;2.58;;;10.00;99.90;;;;;;5059532;28;20115;-37
2023/12/10 09:11:07;;;;;;;12.23;3.05;;;10.00;99.90;;;;;;5059179;28;20059;-38
2023/12/10 09:13:35;;;;;;;13.70;2.80;;;10.00;99.90;;;;;;5060293;28;20033;-36
2023/12/10 09:16:01;;;;;;;17.30;3.55;;;10.00;99.90;;;;;;5054367;28;20021;-35
2023/12/10 09:18:27;;;;;;;18.92;3.47;;;10.00;99.90;;;;;;5058215;28;20032;-35
2023/12/10 09:20:54;;;;;;;16.70;2.95;;;10.00;99.90;;;;;;5058024;28;20028;-35
2023/12/10 09:23:21;;;;;;;16.08;2.90;;;10.00;99.90;;;;;;5059126;28;20399;-36
2023/12/10 09:25:47;;;;;;;14.25;3.10;;;10.10;99.90;;;;;;5058186;28;20048;-35
2023/12/10 09:28:13;;;;;;;13.02;3.10;;;10.10;99.90;;;;;;5059622;28;20056;-35
2023/12/10 09:30:39;;;;;;;14.73;2.95;;;10.10;99.90;;;;;;5058595;28;20124;-36
2023/12/10 09:33:07;;;;;;;15.98;3.17;;;10.10;99.90;;;;;;5058311;28;20391;-36
2023/12/10 09:35:33;;;;;;;15.52;2.92;;;10.10;99.90;;;;;;5060299;28;20613;-36
2023/12/10 09:37:59;;;;;;;9.57;2.72;;;10.10;99.90;;;;;;5061544;28;20017;-36
2023/12/10 09:40:25;;;;;;;14.30;2.80;;;10.20;99.90;;;;;;5062131;28;20029;-36
2023/12/10 09:42:51;;;;;;;14.88;2.70;;;10.20;99.90;;;;;;5058867;28;20027;-36
2023/12/10 09:45:16;;;;;;;13.75;2.58;;;10.20;99.90;;;;;;5061690;28;20091;-36
2023/12/10 09:47:47;;;;;;;9.60;2.67;;;10.30;99.90;;;;;;5062226;28;20463;-36
2023/12/10 09:50:13;;;;;;;12.13;2.63;;;10.30;99.90;;;;;;5062009;28;20092;-36
2023/12/10 09:52:45;;;;;;;10.38;2.33;;;10.20;99.90;;;;;;5061472;28;20428;-36
2023/12/10 09:55:11;;;;;;;9.32;2.30;;;10.20;99.90;;;;;;5061466;28;20058;-36
2023/12/10 09:57:36;;;;;;;14.18;2.83;;;10.30;99.90;;;;;;5061945;28;20029;-35
2023/12/10 10:00:03;;;;;;;12.30;2.50;;;10.30;99.90;;;;;;5059893;28;20407;-36
2023/12/10 10:02:33;;;;;;;11.75;2.53;;;10.30;99.90;;;;;;5061536;28;20873;-37
2023/12/10 10:05:03;;;;;;;11.25;2.35;;;10.30;99.90;;;;;;5061951;28;20035;-36
2023/12/10 10:07:29;;;;;;;13.77;2.70;;;10.40;99.90;;;;;;5061761;28;20471;-36
2023/12/10 10:09:55;;;;;;;15.55;2.83;;;10.30;99.90;;;;;;5061546;28;20029;-37
2023/12/10 10:12:21;;;;;;;14.88;2.40;;;10.40;99.90;;;;;;5061208;28;20468;-37
2023/12/10 10:14:57;;;;;;;12.60;2.58;;;10.40;99.90;;;;;;5061534;28;20807;-37
2023/12/10 10:17:27;;;;;;;8.50;2.25;;;10.40;99.90;;;;;;5062073;28;20028;-36
2023/12/10 10:19:54;;;;;;;10.55;2.13;;;10.40;99.90;;;;;;5061228;28;20114;-39
2023/12/10 10:22:21;;;;;;;7.90;1.95;;;10.40;99.90;;;;;;5061737;28;20089;-38
2023/12/10 10:24:47;;;;;;;8.10;2.10;;;10.40;99.90;;;;;;5062967;28;20020;-36
2023/12/10 10:27:12;;;;;;;8.90;2.20;;;10.50;99.90;;;;;;5059164;28;20028;-36
2023/12/10 10:29:40;;;;;;;8.75;2.03;;;10.50;99.90;;;;;;5061518;28;20687;-36
2023/12/10 10:32:07;;;;;;;8.65;2.15;;;10.50;99.90;;;;;;5061923;28;20059;-37
2023/12/10 10:34:34;;;;;;;9.98;2.85;;;10.50;99.90;;;;;;5061591;28;20040;-37
2023/12/10 10:37:08;;;;;;;13.15;2.90;;;10.50;99.90;;;;;;5061257;28;20117;-37
2023/12/10 10:39:34;;;;;;;10.40;2.30;;;10.50;99.90;;;;;;5062689;28;20024;-36
2023/12/10 10:42:04;;;;;;;7.45;2.08;;;10.50;99.90;;;;;;5060930;28;20048;-36
2023/12/10 10:44:31;;;;;;;13.40;3.00;;;10.50;99.90;;;;;;5062150;28;20127;-36
2023/12/10 10:46:59;;;;;;;12.05;2.75;;;10.50;99.90;;;;;;5059123;28;20024;-37
2023/12/10 10:49:26;;;;;;;10.40;2.67;;;10.50;99.90;;;;;;5060305;28;20028;-37
2023/12/10 10:51:53;;;;;;;15.43;3.05;;;10.50;99.90;;;;;;5061186;28;20063;-37
2023/12/10 10:54:19;;;;;;;9.02;2.35;;;10.50;99.90;;;;;;5061722;28;20035;-36
2023/12/10 10:56:45;;;;;;;14.48;3.58;;;10.50;99.90;;;;;;5062125;28;20098;-36
2023/12/10 10:59:30;;;;;;;14.43;3.28;;;10.50;99.90;;;;;;5061575;28;20109;-37
2023/12/10 11:02:00;;;;;;;9.65;2.45;;;10.50;99.90;;;;;;5060885;28;20089;-37
2023/12/10 11:04:38;;;;;;;11.18;2.60;;;10.60;99.90;;;;;;5061643;28;20669;-37
2023/12/10 11:07:07;;;;;;;14.23;3.03;;;10.60;99.90;;;;;;5061794;28;20107;-36
2023/12/10 11:09:55;;;;;;;15.38;2.90;;;10.70;99.90;;;;;;5060687;28;20063;-36
2023/12/10 11:12:39;;;;;;;11.43;3.13;;;10.70;99.90;;;;;;5061852;28;20043;-36
2023/12/10 11:15:21;;;;;;;12.93;2.85;;;10.70;99.90;;;;;;5060748;28;20129;-36
2023/12/10 11:17:58;;;;;;;9.90;2.83;;;10.70;99.90;;;;;;5061461;28;20050;-36
2023/12/10 11:20:44;;;;;;;11.48;2.42;;;10.70;99.90;;;;;;5058281;28;20033;-37
2023/12/10 11:23:17;;;;;;;9.10;2.50;;;10.70;99.90;;;;;;5061265;28;20024;-37
2023/12/10 11:25:44;;;;;;;13.43;2.50;;;10.80;99.90;;;;;;5059951;28;20029;-36
2023/12/10 11:28:14;;;;;;;14.93;3.72;;;10.80;99.90;;;;;;5057984;28;20547;-38
2023/12/10 11:30:41;;;;;;;12.00;2.47;;;10.80;99.90;;;;;;5057364;28;20043;-37
2023/12/10 11:33:07;;;;;;;10.32;2.65;;;10.80;99.90;;;;;;5061168;28;20546;-37
2023/12/10 11:35:32;;;;;;;15.15;3.38;;;10.80;99.90;;;;;;5060918;28;20028;-37
2023/12/10 11:37:58;;;;;;;12.13;2.63;;;10.80;99.90;;;;;;5060001;28;20075;-37
2023/12/10 11:40:25;;;;;;;9.93;2.70;;;10.80;99.90;;;;;;5060772;28;20025;-36
2023/12/10 11:42:51;;;;;;;10.32;2.80;;;10.80;99.90;;;;;;5060274;28;20021;-37
2023/12/10 11:45:22;;;;;;;11.75;2.30;;;10.90;99.90;;;;;;5060293;28;20077;-37
2023/12/10 11:47:48;;;;;;;14.38;2.90;;;10.90;99.90;;;;;;5060814;28;20028;-37
2023/12/10 11:50:14;;;;;;;9.13;2.65;;;11.00;99.90;;;;;;5060654;28;20036;-36
2023/12/10 11:52:40;;;;;;;10.45;2.53;;;11.00;99.90;;;;;;5060038;28;20035;-38
2023/12/10 11:55:09;;;;;;;10.13;2.30;;;11.10;99.90;;;;;;5061339;28;20028;-38
2023/12/10 11:57:42;;;;;;;11.82;2.63;;;11.10;99.90;;;;;;5060998;28;20035;-37
2023/12/10 12:00:21;;;;;;;10.55;2.03;;;11.10;99.90;;;;;;5059121;28;20056;-37
2023/12/10 12:02:47;;;;;;;11.25;2.30;;;11.10;99.90;;;;;;5060575;28;20367;-38
2023/12/10 12:05:16;;;;;;;10.13;2.40;;;11.00;99.90;;;;;;5059434;28;20060;-37
2023/12/10 12:07:43;;;;;;;10.38;2.40;;;11.00;99.90;;;;;;5060668;28;20485;-37
2023/12/10 12:10:10;;;;;;;10.30;2.35;;;10.90;99.90;;;;;;5059597;28;20024;-38
2023/12/10 12:12:45;;;;;;;7.90;2.22;;;10.80;99.90;;;;;;5059244;28;20024;-38
2023/12/10 12:15:14;;;;;;;11.57;2.78;;;10.90;99.90;;;;;;5059947;28;20032;-37
2023/12/10 12:17:44;;;;;;;8.65;2.25;;;10.80;99.90;;;;;;5049498;28;20021;-38
2023/12/10 12:20:22;;;;;;;10.57;2.05;;;10.90;99.90;;;;;;5059530;28;20021;-39
2023/12/10 12:22:49;;;;;;;7.07;1.83;;;10.90;99.90;;;;;;5058537;28;20020;-39
2023/12/10 12:25:15;;;;;;;9.23;1.75;;;11.00;99.90;;;;;;5060634;28;20028;-38
2023/12/10 12:27:41;;;;;;;6.07;1.95;;;11.10;99.90;;;;;;5059590;28;20036;-38
2023/12/10 12:30:07;;;;;;;8.55;1.92;;;11.10;99.90;;;;;;5059869;28;20082;-38
2023/12/10 12:32:33;;;;;;;7.47;1.90;;;11.10;99.90;;;;;;5058888;28;20097;-38
2023/12/10 12:34:59;;;;;;;5.85;1.75;;;11.20;99.90;;;;;;5057475;28;20467;-38
2023/12/10 12:37:24;;;;;;;10.68;2.83;;;11.20;99.90;;;;;;5058627;28;20025;-38
2023/12/10 12:39:53;;;;;;;8.52;1.88;;;11.20;99.90;;;;;;5059279;28;20082;-38
2023/12/10 12:42:19;;;;;;;6.75;1.80;;;11.20;99.90;;;;;;5059035;28;20017;-38